Time;durP1;ratioP1;P1;durP2;ratioP2;P2;SDS_P1;SDS_P2;PMS_P1;PMS_P2;Temp;Humidity;BMP_temperature;BMP_pressure;BME280_temperature;BME280_humidity;BME280_pressure;Samples;Min_cycle;Max_cycle;Signal;HPM_P1;HPM_P2
2021/08/30 00:00:39;;;;;;;14.58;10.25;;;;;;;11.16;76.03;99954.81;2127897;83;31864;-61
2021/08/30 00:03:41;;;;;;;11.40;9.60;;;;;;;11.15;76.08;99951.75;2127625;83;34243;-61
2021/08/30 00:06:44;;;;;;;17.27;10.00;;;;;;;11.11;76.08;99950.19;2104716;83;29739;-61
2021/08/30 00:09:46;;;;;;;12.35;9.63;;;;;;;11.06;76.11;99946.44;2082046;85;27723;-62
2021/08/30 00:12:48;;;;;;;11.70;10.23;;;;;;;11.04;76.15;99945.66;2082030;85;29951;-62
2021/08/30 00:15:50;;;;;;;12.58;10.25;;;;;;;11.00;76.16;99949.45;2078007;85;32285;-62
2021/08/30 00:18:52;;;;;;;10.53;9.20;;;;;;;10.97;76.34;99957.66;2080920;85;34270;-62
2021/08/30 00:21:54;;;;;;;11.08;9.35;;;;;;;10.96;76.22;99950.58;2070722;85;30505;-62
2021/08/30 00:24:56;;;;;;;11.70;9.68;;;;;;;10.94;76.13;99954.70;2059889;85;27717;-62
2021/08/30 00:27:58;;;;;;;16.27;9.05;;;;;;;10.92;76.11;99953.06;2084527;84;27745;-63
2021/08/30 00:31:00;;;;;;;13.22;9.93;;;;;;;10.92;76.27;99967.31;2063347;85;31077;-63
2021/08/30 00:34:02;;;;;;;10.05;8.78;;;;;;;10.92;76.50;99972.67;2058780;85;34103;-63
2021/08/30 00:37:04;;;;;;;12.53;8.95;;;;;;;10.92;76.60;99970.48;2058375;85;29744;-63
2021/08/30 00:40:08;;;;;;;9.15;8.15;;;;;;;10.93;76.57;99974.41;2056127;85;27688;-63
2021/08/30 00:43:11;;;;;;;10.08;8.70;;;;;;;10.92;76.58;99971.83;2059833;85;28726;-63
2021/08/30 00:46:17;;;;;;;11.90;9.30;;;;;;;10.91;76.49;99981.66;2082494;85;31854;-63
2021/08/30 00:49:16;;;;;;;14.68;8.88;;;;;;;10.91;76.58;99985.69;2081402;85;34254;-63
2021/08/30 00:52:18;;;;;;;10.68;8.80;;;;;;;10.93;76.66;99989.61;2082425;84;30627;-63
2021/08/30 00:55:20;;;;;;;10.80;8.28;;;;;;;10.91;76.64;99981.66;2067550;83;28144;-63
2021/08/30 00:58:22;;;;;;;10.05;8.50;;;;;;;10.92;76.67;99979.87;2060479;85;30050;-62
2021/08/30 01:01:24;;;;;;;12.15;9.15;;;;;;;10.93;76.73;99982.45;2091286;83;32110;-62
2021/08/30 01:04:26;;;;;;;11.80;9.20;;;;;;;10.98;76.85;99990.22;2110586;83;33479;-64
2021/08/30 01:07:45;;;;;;;11.75;9.53;;;;;;;11.02;76.85;99990.91;2111472;84;29864;-63
2021/08/30 01:10:57;;;;;;;12.23;9.80;;;;;;;11.06;76.92;99990.67;2116875;84;27740;-61
2021/08/30 01:14:02;;;;;;;12.00;10.48;;;;;;;11.13;77.16;99993.86;2116597;83;28813;-61
2021/08/30 01:17:05;;;;;;;12.35;9.55;;;;;;;11.19;77.32;99998.00;2115835;84;31930;-61
2021/08/30 01:20:18;;;;;;;12.13;9.70;;;;;;;11.28;77.43;99997.46;2116728;83;33122;-61
2021/08/30 01:23:22;;;;;;;14.83;10.13;;;;;;;11.33;77.49;99994.05;2116287;83;30175;-62
2021/08/30 01:26:26;;;;;;;11.90;9.83;;;;;;;11.42;77.57;99985.09;2116628;83;27718;-61
2021/08/30 01:29:46;;;;;;;13.30;10.18;;;;;;;11.47;77.63;99983.87;2116550;83;28602;-62
2021/08/30 01:32:52;;;;;;;11.73;9.68;;;;;;;11.54;77.62;99989.73;2115502;83;32391;-63
2021/08/30 01:35:54;;;;;;;13.00;9.50;;;;;;;11.60;77.62;99989.35;2116641;83;33014;-61
2021/08/30 01:38:59;;;;;;;12.30;9.50;;;;;;;11.66;77.57;99984.98;2116642;83;29696;-61
2021/08/30 01:42:02;;;;;;;12.37;9.53;;;;;;;11.72;77.52;99986.92;2116481;83;27672;-61
2021/08/30 01:45:08;;;;;;;12.30;10.25;;;;;;;11.75;77.50;99974.66;2111341;84;29460;-61
2021/08/30 01:48:10;;;;;;;15.98;10.48;;;;;;;11.77;77.43;99974.95;2110725;83;31423;-62
2021/08/30 01:51:12;;;;;;;12.35;9.30;;;;;;;11.78;77.37;99971.77;2110755;84;33755;-61
2021/08/30 01:54:14;;;;;;;12.82;9.80;;;;;;;11.79;77.28;99965.45;2113278;83;30458;-62
2021/08/30 01:57:20;;;;;;;15.75;10.05;;;;;;;11.79;77.19;99958.73;2116396;84;27731;-61
2021/08/30 02:03:40;;;;;;;11.40;8.90;;;;;;;11.76;77.06;99950.87;2127554;83;31890;-61
2021/08/30 02:06:43;;;;;;;10.70;9.00;;;;;;;11.74;77.01;99946.10;2128073;83;33493;-63
2021/08/30 02:09:45;;;;;;;11.28;9.20;;;;;;;11.73;77.03;99936.32;2100395;83;28861;-61
2021/08/30 02:12:46;;;;;;;12.03;8.65;;;;;;;11.71;77.05;99939.08;2087970;85;27734;-61
2021/08/30 02:15:49;;;;;;;12.20;9.30;;;;;;;11.71;77.03;99943.10;2087978;85;28480;-61
2021/08/30 02:19:34;;;;;;;10.90;9.20;;;;;;;11.69;77.05;99931.13;2087936;85;31040;-61
2021/08/30 02:22:42;;;;;;;12.90;9.40;;;;;;;11.69;77.08;99932.94;2087453;83;33364;-62
2021/08/30 02:25:45;;;;;;;14.98;10.50;;;;;;;11.68;77.09;99935.23;2087984;85;29337;-62
2021/08/30 02:28:48;;;;;;;11.48;10.00;;;;;;;11.68;77.17;99932.55;2088156;85;27622;-63
2021/08/30 02:31:55;;;;;;;13.50;10.15;;;;;;;11.69;77.28;99941.86;2096023;83;28652;-63
2021/08/30 02:35:01;;;;;;;13.48;11.45;;;;;;;11.72;77.34;99934.59;2083861;85;30800;-61
2021/08/30 02:38:04;;;;;;;13.45;10.48;;;;;;;11.73;77.39;99925.09;2085181;85;33792;-61
2021/08/30 02:41:07;;;;;;;14.33;9.68;;;;;;;11.75;77.47;99917.81;2085483;83;30513;-62
2021/08/30 02:44:09;;;;;;;11.63;9.75;;;;;;;11.77;77.55;99916.37;2066558;85;27708;-62
2021/08/30 02:47:13;;;;;;;13.10;10.20;;;;;;;11.78;77.53;99917.63;2087948;85;29884;-61
2021/08/30 02:50:16;;;;;;;13.43;10.13;;;;;;;11.79;77.55;99919.36;2088138;85;31829;-63
2021/08/30 02:53:21;;;;;;;14.13;10.75;;;;;;;11.82;77.64;99918.30;2085262;83;33872;-63
2021/08/30 02:56:23;;;;;;;11.20;9.40;;;;;;;11.84;77.64;99915.90;2085460;85;29521;-62
2021/08/30 02:59:26;;;;;;;11.10;9.88;;;;;;;11.87;77.68;99910.84;2064190;85;27635;-61
2021/08/30 03:02:28;;;;;;;14.23;10.80;;;;;;;11.91;77.81;99913.73;2102800;83;29896;-63
2021/08/30 03:05:31;;;;;;;15.75;10.50;;;;;;;11.96;77.73;99917.47;2125338;83;31400;-61
2021/08/30 03:08:34;;;;;;;11.18;9.55;;;;;;;11.97;77.70;99923.22;2069058;85;33937;-63
2021/08/30 03:11:37;;;;;;;13.98;10.50;;;;;;;11.98;77.74;99928.52;2085036;85;29065;-63
2021/08/30 03:14:39;;;;;;;13.20;9.23;;;;;;;11.97;77.79;99932.13;2084882;85;27696;-61
2021/08/30 03:17:44;;;;;;;14.20;9.90;;;;;;;12.00;77.81;99940.48;2084951;85;29911;-62
2021/08/30 03:20:48;;;;;;;12.13;10.08;;;;;;;12.04;77.84;99953.27;2082651;85;31954;-62
2021/08/30 03:23:50;;;;;;;15.45;11.30;;;;;;;12.06;77.77;99952.70;2063112;85;33890;-62
2021/08/30 03:26:53;;;;;;;12.53;10.28;;;;;;;12.06;77.77;99949.52;2084552;85;29379;-61
2021/08/30 03:29:56;;;;;;;12.18;9.10;;;;;;;12.08;77.85;99943.58;2085718;83;27724;-62
2021/08/30 03:33:00;;;;;;;26.12;19.92;;;;;;;12.11;77.89;99941.17;2085207;85;28832;-62
2021/08/30 03:36:02;;;;;;;12.78;10.08;;;;;;;12.12;77.85;99945.59;2084980;85;31056;-61
2021/08/30 03:39:04;;;;;;;11.28;9.28;;;;;;;12.14;77.87;99953.95;2063608;85;34127;-61
2021/08/30 03:42:07;;;;;;;14.45;9.73;;;;;;;12.16;77.88;99966.78;2125103;83;29682;-61
2021/08/30 03:45:11;;;;;;;14.28;10.08;;;;;;;12.19;77.84;99975.14;2125438;83;27651;-62
2021/08/30 03:48:15;;;;;;;11.85;9.40;;;;;;;12.20;77.84;99967.94;2125086;83;29646;-62
2021/08/30 03:51:18;;;;;;;13.48;10.08;;;;;;;12.18;77.89;99970.73;2123978;83;31866;-62
2021/08/30 03:54:21;;;;;;;10.65;9.00;;;;;;;12.19;77.95;99967.09;2125394;83;34097;-75
2021/08/30 03:57:23;;;;;;;13.90;9.35;;;;;;;12.21;77.96;99957.13;2125177;83;30139;-62
2021/08/30 04:00:27;;;;;;;12.33;9.80;;;;;;;12.23;77.95;99961.04;2111222;83;27713;-62
2021/08/30 04:03:28;;;;;;;14.20;9.83;;;;;;;12.22;77.95;99964.69;2089020;85;28229;-62
2021/08/30 04:06:31;;;;;;;12.55;10.38;;;;;;;12.24;78.01;99961.42;2091861;85;32308;-61
2021/08/30 04:09:33;;;;;;;16.17;9.65;;;;;;;12.24;78.06;99950.22;2079445;85;33794;-64
2021/08/30 04:12:36;;;;;;;16.17;10.35;;;;;;;12.25;78.07;99958.63;2079624;85;29610;-63
2021/08/30 04:15:38;;;;;;;12.15;9.58;;;;;;;12.26;78.12;99958.17;2083653;84;27708;-63
2021/08/30 04:18:40;;;;;;;17.67;10.25;;;;;;;12.27;78.17;99962.09;2092619;84;28684;-63
2021/08/30 04:21:42;;;;;;;11.45;9.63;;;;;;;12.28;78.10;99962.47;2079128;85;31129;-63
2021/08/30 04:24:44;;;;;;;13.65;10.23;;;;;;;12.29;78.14;99964.20;2074910;84;33096;-62
2021/08/30 04:27:46;;;;;;;14.30;10.13;;;;;;;12.31;78.27;99958.27;2092915;84;30388;-60
2021/08/30 04:30:48;;;;;;;14.38;9.70;;;;;;;12.35;78.21;99966.98;2092237;83;27636;-63
2021/08/30 04:33:50;;;;;;;14.63;9.93;;;;;;;12.36;78.29;99966.52;2091761;83;28668;-60
2021/08/30 04:36:52;;;;;;;15.28;9.35;;;;;;;12.37;78.28;99964.22;2091919;85;32303;-61
2021/08/30 04:39:54;;;;;;;11.25;9.30;;;;;;;12.41;78.37;99959.05;2057486;85;34167;-61
2021/08/30 04:42:59;;;;;;;13.55;9.43;;;;;;;12.43;78.37;99953.95;2079390;85;29425;-61
2021/08/30 04:46:01;;;;;;;15.55;10.32;;;;;;;12.45;78.38;99952.03;2079914;85;27654;-61
2021/08/30 04:49:03;;;;;;;12.60;9.93;;;;;;;12.51;78.41;99957.49;2079179;85;29924;-62
2021/08/30 04:52:06;;;;;;;11.18;9.25;;;;;;;12.53;78.40;99955.58;2092820;84;32218;-61
2021/08/30 04:55:11;;;;;;;12.00;9.43;;;;;;;12.56;78.37;99964.80;2079990;83;33781;-62
2021/08/30 04:58:13;;;;;;;15.78;9.88;;;;;;;12.61;78.43;99965.34;2092209;85;29332;-60
2021/08/30 05:01:14;;;;;;;13.18;10.20;;;;;;;12.70;78.58;99961.20;2092243;83;27708;-62
2021/08/30 05:04:16;;;;;;;13.58;9.95;;;;;;;12.79;78.49;99961.09;2117375;82;29973;-61
2021/08/30 05:07:18;;;;;;;14.30;10.45;;;;;;;12.89;78.62;99960.90;2084882;85;32292;-61
2021/08/30 05:10:20;;;;;;;12.60;10.10;;;;;;;13.01;78.59;99961.05;2085255;85;33330;-61
2021/08/30 05:13:22;;;;;;;12.73;9.45;;;;;;;13.10;78.47;99971.69;2085108;85;29770;-61
2021/08/30 05:16:25;;;;;;;13.40;8.98;;;;;;;13.18;78.54;99974.72;2085632;85;27676;-62
2021/08/30 05:19:27;;;;;;;11.90;9.43;;;;;;;13.24;78.39;99977.02;2085051;84;28665;-64
2021/08/30 05:22:29;;;;;;;13.98;9.75;;;;;;;13.30;78.36;99977.97;2102063;83;31822;-63
2021/08/30 05:25:31;;;;;;;15.30;9.60;;;;;;;13.37;78.27;99978.42;2091724;83;33032;-63
2021/08/30 05:28:33;;;;;;;11.18;9.40;;;;;;;13.43;78.18;99978.52;2087531;83;29661;-62
2021/08/30 05:31:35;;;;;;;12.13;9.78;;;;;;;13.47;78.26;99978.70;2088204;85;28055;-61
2021/08/30 05:34:37;;;;;;;10.48;8.90;;;;;;;13.52;78.17;99981.46;2087535;83;30015;-61
2021/08/30 05:37:40;;;;;;;13.55;9.85;;;;;;;13.58;78.16;99980.18;2085119;85;32227;-61
2021/08/30 05:40:42;;;;;;;12.15;9.60;;;;;;;13.67;78.15;99980.04;2085462;85;33121;-60
2021/08/30 05:43:43;;;;;;;12.98;9.58;;;;;;;13.75;78.28;99977.67;2084903;85;30352;-61
2021/08/30 05:46:45;;;;;;;16.07;11.38;;;;;;;13.84;78.22;99977.53;2087472;83;27719;-63
2021/08/30 05:49:48;;;;;;;13.35;10.53;;;;;;;13.92;78.14;99972.49;2087712;85;30070;-61
2021/08/30 05:52:50;;;;;;;15.28;10.35;;;;;;;14.02;78.15;99971.37;2087652;85;31912;-61
2021/08/30 05:55:51;;;;;;;14.87;10.48;;;;;;;14.12;78.11;99967.06;2087388;83;33585;-60
2021/08/30 05:58:54;;;;;;;17.87;11.57;;;;;;;14.25;78.09;99959.45;2084919;85;30646;-60
2021/08/30 06:01:56;;;;;;;16.37;11.15;;;;;;;14.41;78.17;99961.94;2084949;85;27625;-60
2021/08/30 06:04:57;;;;;;;13.50;10.25;;;;;;;14.56;78.09;99957.29;2113388;83;29856;-60
2021/08/30 06:07:59;;;;;;;14.45;11.83;;;;;;;14.72;77.84;99961.10;2114335;83;32420;-60
2021/08/30 06:11:02;;;;;;;15.43;11.73;;;;;;;14.83;77.48;99965.72;2110432;84;34350;-60
2021/08/30 06:14:04;;;;;;;15.10;11.03;;;;;;;14.92;77.51;99955.59;2110459;84;30491;-61
2021/08/30 06:17:06;;;;;;;12.60;10.10;;;;;;;15.07;77.44;99963.52;2110679;84;28218;-60
2021/08/30 06:20:09;;;;;;;15.18;10.48;;;;;;;15.17;77.22;99957.33;2115633;84;28707;-60
2021/08/30 06:23:12;;;;;;;15.95;10.35;;;;;;;15.31;77.21;99955.43;2116454;83;31252;-60
2021/08/30 06:26:14;;;;;;;13.45;10.63;;;;;;;15.46;77.00;99958.35;2116141;83;33017;-59
2021/08/30 06:29:16;;;;;;;14.78;9.55;;;;;;;15.59;76.91;99964.16;2116163;83;30547;-61
2021/08/30 06:32:18;;;;;;;13.38;10.23;;;;;;;15.70;76.57;99966.89;2116249;84;28281;-59
2021/08/30 06:35:21;;;;;;;18.42;10.38;;;;;;;15.82;76.34;99970.50;2111402;84;29842;-59
2021/08/30 06:38:23;;;;;;;14.47;10.05;;;;;;;15.82;76.34;99970.50;2110764;83;31024;-59
2021/08/30 06:41:25;;;;;;;13.90;10.03;;;;;;;15.93;76.07;99969.70;2110539;83;34143;-59
2021/08/30 06:44:28;;;;;;;15.15;10.05;;;;;;;15.99;75.89;99974.61;2110713;84;30474;-59
2021/08/30 06:47:30;;;;;;;12.45;9.90;;;;;;;16.04;75.70;99970.22;2114136;83;27653;-59
2021/08/30 06:50:32;;;;;;;13.35;9.80;;;;;;;16.01;75.79;99937.53;2115539;83;29882;-60
2021/08/30 06:53:39;;;;;;;13.60;9.23;;;;;;;16.28;75.63;99955.74;2115707;82;32226;-60
2021/08/30 06:56:42;;;;;;;13.80;10.15;;;;;;;16.42;75.52;99954.15;2130173;83;32975;-60
2021/08/30 06:59:49;;;;;;;14.43;9.23;;;;;;;16.75;75.26;99961.88;2113106;83;29496;-60
2021/08/30 07:02:54;;;;;;;13.15;10.25;;;;;;;16.75;75.26;99961.88;2107041;83;27672;-60
2021/08/30 07:05:56;;;;;;;12.50;9.50;;;;;;;16.91;75.00;99966.92;2110919;83;29702;-59
2021/08/30 07:09:01;;;;;;;12.00;9.53;;;;;;;17.13;74.38;99959.74;2110399;84;32309;-61
2021/08/30 07:12:03;;;;;;;11.57;9.90;;;;;;;17.13;74.38;99959.74;2110606;84;33681;-61
2021/08/30 07:15:07;;;;;;;10.85;9.03;;;;;;;17.22;74.22;99961.70;2110744;83;28795;-60
2021/08/30 07:18:08;;;;;;;12.43;10.03;;;;;;;17.31;74.02;99954.66;2110835;84;27626;-60
2021/08/30 07:21:10;;;;;;;11.25;9.60;;;;;;;17.34;73.67;99956.25;2110498;84;29538;-61
2021/08/30 07:24:13;;;;;;;11.12;9.88;;;;;;;17.44;73.86;99958.05;2110333;84;32383;-60
2021/08/30 07:27:16;;;;;;;12.75;10.53;;;;;;;17.60;73.89;99954.05;2110776;84;33716;-60
2021/08/30 07:30:18;;;;;;;15.95;11.63;;;;;;;17.69;73.63;99959.17;2110676;84;30476;-60
2021/08/30 07:33:21;;;;;;;14.25;12.50;;;;;;;17.81;73.51;99957.28;2110827;84;27683;-60
2021/08/30 07:36:23;;;;;;;13.43;11.22;;;;;;;17.90;73.32;99965.95;2110719;84;28725;-60
2021/08/30 07:39:25;;;;;;;15.98;11.18;;;;;;;17.92;72.89;99970.75;2111028;84;31559;-60
2021/08/30 07:42:28;;;;;;;11.93;10.10;;;;;;;17.94;72.72;99968.77;2110299;84;34188;-61
2021/08/30 07:45:41;;;;;;;16.95;12.45;;;;;;;18.02;72.68;99970.37;2110397;84;29398;-60
2021/08/30 07:48:48;;;;;;;16.53;10.83;;;;;;;18.09;72.29;99968.47;2110744;84;27733;-60
2021/08/30 07:51:56;;;;;;;12.15;10.85;;;;;;;18.17;72.47;99974.94;2110747;83;28607;-60
2021/08/30 07:55:04;;;;;;;14.23;10.95;;;;;;;18.25;72.18;99976.14;2110704;84;31911;-60
2021/08/30 07:58:08;;;;;;;11.60;10.40;;;;;;;18.22;71.75;99974.53;2110795;84;32959;-60
2021/08/30 08:01:13;;;;;;;13.80;10.38;;;;;;;18.19;71.70;99978.38;2110822;84;29329;-60
2021/08/30 08:04:18;;;;;;;14.23;10.18;;;;;;;18.19;71.53;99972.96;2117381;83;27733;-61
2021/08/30 08:07:23;;;;;;;12.75;10.70;;;;;;;18.21;71.74;99976.88;2125308;83;28673;-61
2021/08/30 08:10:34;;;;;;;12.88;10.75;;;;;;;18.30;71.33;99980.64;2125168;83;31002;-60
2021/08/30 08:13:37;;;;;;;14.30;9.60;;;;;;;18.45;71.00;99975.73;2124952;83;33002;-60
2021/08/30 08:16:39;;;;;;;10.35;9.33;;;;;;;18.49;70.42;99977.19;2125210;83;29333;-60
2021/08/30 08:19:42;;;;;;;9.25;8.28;;;;;;;18.64;70.41;99987.16;2125082;83;27699;-60
2021/08/30 08:22:44;;;;;;;10.18;9.00;;;;;;;18.78;70.44;99988.14;2125479;83;29659;-60
2021/08/30 08:25:46;;;;;;;9.43;7.75;;;;;;;18.92;69.42;99999.64;2124732;83;32052;-60
2021/08/30 08:28:48;;;;;;;9.38;7.80;;;;;;;18.89;69.27;99993.97;2124681;83;34311;-60
2021/08/30 08:31:51;;;;;;;10.48;9.05;;;;;;;18.93;69.02;100001.36;2124707;83;30282;-60
2021/08/30 08:34:53;;;;;;;8.38;7.55;;;;;;;18.96;68.96;100007.40;2124891;83;27602;-60
2021/08/30 08:37:55;;;;;;;7.83;7.08;;;;;;;18.95;68.81;100003.45;2124741;83;28629;-60
2021/08/30 08:40:58;;;;;;;9.45;7.12;;;;;;;18.97;68.24;100000.98;2124817;83;31918;-60
2021/08/30 08:44:00;;;;;;;7.70;6.75;;;;;;;18.98;68.31;100007.25;2124762;83;34151;-60
2021/08/30 08:47:03;;;;;;;7.50;6.58;;;;;;;19.00;68.40;99997.11;2125156;83;30454;-60
2021/08/30 08:50:10;;;;;;;8.30;6.45;;;;;;;19.13;68.30;99996.36;2124961;83;27705;-61
2021/08/30 08:53:12;;;;;;;8.38;6.58;;;;;;;19.22;68.23;99996.02;2125356;83;28644;-61
2021/08/30 08:56:17;;;;;;;7.55;6.35;;;;;;;19.42;67.92;99997.41;2125013;83;32280;-61
2021/08/30 08:59:19;;;;;;;8.58;6.60;;;;;;;19.57;67.27;99997.35;2125406;83;32943;-61
2021/08/30 09:02:28;;;;;;;7.87;6.58;;;;;;;19.68;67.21;99995.52;2125689;83;29888;-62
2021/08/30 09:05:34;;;;;;;6.58;5.83;;;;;;;19.74;66.63;99997.16;2124929;83;27607;-61
2021/08/30 09:08:41;;;;;;;7.83;7.03;;;;;;;19.76;66.41;99996.16;2125399;83;28735;-60
2021/08/30 09:11:51;;;;;;;9.03;7.62;;;;;;;19.72;65.80;99993.72;2124920;83;31008;-60
2021/08/30 09:14:52;;;;;;;7.12;6.22;;;;;;;19.74;66.25;99988.13;2124758;83;34920;-60
2021/08/30 09:17:56;;;;;;;10.93;7.53;;;;;;;19.83;65.98;99990.48;2125030;83;30522;-60
2021/08/30 09:21:14;;;;;;;7.62;6.92;;;;;;;19.79;65.64;99984.48;2125579;83;27652;-59
2021/08/30 09:24:23;;;;;;;8.63;6.80;;;;;;;19.81;65.88;99981.61;2124996;83;29992;-60
2021/08/30 09:27:27;;;;;;;8.23;6.00;;;;;;;19.88;66.17;99974.64;2125353;83;31011;-59
2021/08/30 09:30:29;;;;;;;6.57;5.90;;;;;;;19.97;65.82;99971.55;2102292;83;32969;-60
2021/08/30 09:33:35;;;;;;;7.92;6.05;;;;;;;20.01;65.32;99977.91;2125008;83;30554;-59
2021/08/30 09:36:43;;;;;;;8.13;6.55;;;;;;;19.95;65.39;99978.48;2125498;83;27733;-60
2021/08/30 09:39:58;;;;;;;9.03;6.75;;;;;;;19.99;65.47;99977.70;2124977;83;29905;-60
2021/08/30 09:43:00;;;;;;;9.03;6.70;;;;;;;19.96;65.14;99978.00;2125590;83;31010;-63
2021/08/30 09:46:05;;;;;;;7.42;6.08;;;;;;;19.91;64.89;99974.36;2124949;83;34326;-60
2021/08/30 09:49:09;;;;;;;6.85;5.95;;;;;;;19.87;64.85;99984.64;2125351;83;29329;-60
2021/08/30 09:52:41;;;;;;;8.90;7.50;;;;;;;19.81;64.84;99984.33;2125211;83;27682;-61
2021/08/30 09:55:32;;;;;;;8.93;7.42;;;;;;;19.71;64.69;99980.25;2099317;83;27631;-59
2021/08/30 09:58:34;;;;;;;11.55;7.80;;;;;;;19.57;64.76;99981.05;2124461;83;30233;-60
2021/08/30 10:01:41;;;;;;;9.83;6.83;;;;;;;19.36;64.79;99981.19;2124954;83;33805;-59
2021/08/30 10:04:45;;;;;;;9.68;7.10;;;;;;;19.19;65.03;99982.74;2125100;83;29334;-60
2021/08/30 10:07:48;;;;;;;6.85;6.12;;;;;;;19.04;65.18;99983.63;2125579;83;27666;-59
2021/08/30 10:10:51;;;;;;;6.83;6.12;;;;;;;18.98;65.17;99986.41;2125424;83;28869;-59
2021/08/30 10:13:53;;;;;;;6.72;6.08;;;;;;;18.90;65.36;99985.34;2124908;83;31074;-59
2021/08/30 10:16:57;;;;;;;7.53;6.15;;;;;;;18.88;65.48;99988.18;2124939;83;33468;-58
2021/08/30 10:20:03;;;;;;;6.90;6.20;;;;;;;18.92;65.50;99982.84;2125284;83;29324;-59
2021/08/30 10:23:11;;;;;;;8.10;5.95;;;;;;;18.93;65.18;99983.72;2099323;83;27723;-60
2021/08/30 10:26:16;;;;;;;7.12;6.37;;;;;;;18.93;65.37;99983.20;2118303;83;28649;-60
2021/08/30 10:29:20;;;;;;;;;;;;;;;19.03;65.39;99985.14;2121770;83;31081;-60
2021/08/30 10:32:33;;;;;;;9.00;7.40;;;;;;;19.12;65.35;99976.14;2078988;84;32821;-60
2021/08/30 10:35:40;;;;;;;7.47;6.78;;;;;;;19.21;65.41;99981.23;2088129;85;29825;-60
2021/08/30 10:39:04;;;;;;;14.18;8.33;;;;;;;19.22;65.20;99980.23;2077612;85;27884;-60
2021/08/30 10:42:15;;;;;;;9.40;7.25;;;;;;;19.20;65.23;99984.95;2118980;83;28469;-60
2021/08/30 10:45:23;;;;;;;8.38;7.47;;;;;;;19.16;65.23;99977.59;2097062;83;31870;-61
2021/08/30 10:49:05;;;;;;;9.78;6.70;;;;;;;19.13;65.19;99986.01;2118216;83;30559;-61
2021/08/30 10:52:18;;;;;;;10.43;6.58;;;;;;;19.13;65.10;99988.20;2118903;83;29396;-61
2021/08/30 10:55:25;;;;;;;7.95;6.95;;;;;;;19.13;64.95;99988.72;2119133;83;27933;-59
2021/08/30 10:58:36;;;;;;;7.05;6.35;;;;;;;19.15;65.15;99991.28;2097216;83;28652;-59
2021/08/30 11:01:54;;;;;;;;;;;;;;;19.17;65.32;99988.81;2121716;83;31422;-60
2021/08/30 11:05:00;;;;;;;7.15;6.22;;;;;;;19.19;65.05;99988.17;2079272;85;32983;-61
2021/08/30 11:08:10;;;;;;;6.03;5.40;;;;;;;19.22;65.18;99986.52;2079179;85;29508;-63
2021/08/30 11:11:18;;;;;;;6.65;5.70;;;;;;;19.35;65.09;99982.18;2079459;85;27734;-61
2021/08/30 11:14:22;;;;;;;7.00;5.67;;;;;;;19.42;64.69;99988.78;2080632;85;28692;-61
2021/08/30 11:17:45;;;;;;;6.67;5.78;;;;;;;19.46;64.66;99983.03;2079380;85;31021;-60
2021/08/30 11:21:00;;;;;;;7.37;5.62;;;;;;;19.43;64.53;99989.14;2077713;85;29952;-61
2021/08/30 11:24:24;;;;;;;9.45;6.03;;;;;;;19.34;64.44;99996.76;2078822;85;29311;-60
2021/08/30 11:27:35;;;;;;;6.40;5.75;;;;;;;19.22;64.57;100000.61;2058122;85;27844;-60
2021/08/30 11:30:43;;;;;;;7.37;5.42;;;;;;;19.11;64.56;99992.91;2079268;85;28692;-61
2021/08/30 11:33:50;;;;;;;6.80;5.70;;;;;;;19.05;64.93;99997.56;2079241;85;31126;-61
2021/08/30 11:37:00;;;;;;;8.08;4.87;;;;;;;19.06;64.86;99998.41;2079205;85;32950;-61
2021/08/30 11:40:10;;;;;;;5.28;4.78;;;;;;;19.08;64.74;99993.70;2079211;85;29304;-59
2021/08/30 11:43:24;;;;;;;5.72;5.12;;;;;;;19.08;64.36;99990.98;2057889;85;27895;-60
2021/08/30 11:46:32;;;;;;;6.22;4.55;;;;;;;19.09;64.95;99987.28;2079214;85;28827;-61
2021/08/30 11:49:54;;;;;;;5.70;4.92;;;;;;;19.12;64.69;99982.42;2077758;85;31008;-60
2021/08/30 11:53:01;;;;;;;9.10;4.70;;;;;;;19.16;64.86;99980.30;2079156;85;32991;-60
2021/08/30 11:56:09;;;;;;;6.12;4.22;;;;;;;19.17;64.77;99985.22;2079198;85;29308;-59
2021/08/30 11:59:35;;;;;;;4.83;4.33;;;;;;;19.17;64.52;99983.86;2058252;85;27902;-60
2021/08/30 12:02:46;;;;;;;4.25;3.52;;;;;;;19.12;64.56;99982.42;2057898;85;28658;-60
2021/08/30 12:05:55;;;;;;;5.42;4.55;;;;;;;19.08;64.48;99984.20;2077673;84;31084;-59
2021/08/30 12:09:03;;;;;;;5.42;4.17;;;;;;;19.04;64.72;99980.04;2077064;85;32994;-60
2021/08/30 12:12:31;;;;;;;4.97;4.20;;;;;;;19.05;64.75;99979.05;2077322;84;29360;-61
2021/08/30 12:15:38;;;;;;;6.42;4.60;;;;;;;19.05;64.78;99976.33;2077393;85;27846;-59
2021/08/30 12:18:54;;;;;;;6.28;4.42;;;;;;;19.04;64.69;99975.97;2077543;85;28812;-60
2021/08/30 12:22:03;;;;;;;6.60;4.55;;;;;;;19.03;64.89;99976.99;2083609;84;31052;-59
2021/08/30 12:25:14;;;;;;;7.03;4.72;;;;;;;19.02;65.09;99975.27;2083566;85;33054;-60
2021/08/30 12:28:25;;;;;;;6.47;4.72;;;;;;;19.03;65.23;99973.77;2083244;85;30488;-60
2021/08/30 12:31:38;;;;;;;6.17;4.90;;;;;;;18.99;64.96;99977.75;2083968;84;27832;-60
2021/08/30 12:34:49;;;;;;;5.40;4.65;;;;;;;18.91;64.81;99971.63;2083791;85;28651;-60
2021/08/30 12:38:20;;;;;;;5.65;4.78;;;;;;;18.84;64.95;99973.19;2063163;84;31024;-61
2021/08/30 12:41:29;;;;;;;5.00;4.58;;;;;;;18.81;65.04;99969.39;2062853;84;33139;-59
2021/08/30 12:44:43;;;;;;;5.37;4.85;;;;;;;18.81;65.37;99965.31;2083530;84;29339;-61
2021/08/30 12:47:57;;;;;;;6.35;4.97;;;;;;;18.88;65.87;99958.32;2083375;85;27844;-61
2021/08/30 12:51:10;;;;;;;5.90;5.12;;;;;;;18.98;65.70;99952.47;2083321;85;30161;-61
2021/08/30 12:54:17;;;;;;;5.70;5.08;;;;;;;19.08;65.71;99950.27;2083556;84;31010;-61
2021/08/30 12:57:26;;;;;;;6.20;5.55;;;;;;;19.12;65.52;99949.83;2083154;84;32990;-61
2021/08/30 13:00:33;;;;;;;6.37;5.40;;;;;;;19.23;65.83;99943.94;2083761;84;29347;-61
2021/08/30 13:03:48;;;;;;;5.00;4.50;;;;;;;19.28;65.77;99937.08;2083913;85;27910;-61
2021/08/30 13:07:01;;;;;;;5.55;4.85;;;;;;;19.39;65.83;99938.80;2098797;82;29940;-61
2021/08/30 13:10:11;;;;;;;5.35;4.83;;;;;;;19.51;66.03;99943.59;2105065;84;31109;-61
2021/08/30 13:13:19;;;;;;;7.78;5.70;;;;;;;19.53;66.00;99942.93;2084705;84;32848;-61
2021/08/30 13:16:29;;;;;;;5.28;4.78;;;;;;;19.58;66.06;99941.16;2105046;84;29425;-61
2021/08/30 13:19:40;;;;;;;4.62;4.15;;;;;;;19.65;65.74;99940.09;2105143;83;27869;-60
2021/08/30 13:22:50;;;;;;;4.45;4.05;;;;;;;19.69;65.70;99938.28;2104574;84;29024;-61
2021/08/30 13:25:57;;;;;;;5.35;4.85;;;;;;;19.79;66.00;99934.20;2104872;84;31002;-61
2021/08/30 13:29:03;;;;;;;7.53;4.80;;;;;;;19.87;65.40;99931.63;2104485;83;33066;-61
2021/08/30 13:32:16;;;;;;;4.08;3.77;;;;;;;19.91;65.33;99938.14;2104922;83;29318;-61
2021/08/30 13:35:24;;;;;;;5.50;4.47;;;;;;;19.97;65.47;99934.33;2104553;84;27960;-60
2021/08/30 13:38:30;;;;;;;4.92;4.17;;;;;;;20.01;65.31;99937.64;2105033;83;28667;-60
2021/08/30 13:41:36;;;;;;;5.15;4.65;;;;;;;20.07;65.25;99936.19;2104717;84;31007;-59
2021/08/30 13:44:42;;;;;;;5.75;5.15;;;;;;;20.09;65.22;99936.39;2104918;84;32943;-60
2021/08/30 13:47:53;;;;;;;5.17;4.67;;;;;;;20.12;65.32;99936.09;2105154;84;29320;-59
2021/08/30 13:50:59;;;;;;;5.22;4.72;;;;;;;20.11;64.58;99929.42;2104873;83;27824;-61
2021/08/30 13:54:10;;;;;;;4.80;4.30;;;;;;;20.04;64.66;99930.52;2104697;83;28626;-61
2021/08/30 13:57:22;;;;;;;5.10;4.55;;;;;;;20.03;64.54;99927.44;2104659;84;31081;-61
2021/08/30 14:00:31;;;;;;;5.20;4.70;;;;;;;19.96;64.69;99925.81;2104754;84;33748;-60
2021/08/30 14:03:36;;;;;;;8.45;5.92;;;;;;;19.97;64.75;99927.53;2104686;84;29301;-60
2021/08/30 14:06:45;;;;;;;6.12;5.40;;;;;;;19.99;64.79;99927.41;2104841;82;27933;-61
2021/08/30 14:09:55;;;;;;;5.62;5.12;;;;;;;20.01;64.46;99923.52;2104416;84;28704;-61
2021/08/30 14:13:08;;;;;;;5.45;4.78;;;;;;;20.01;64.64;99920.81;2103915;84;31017;-61
2021/08/30 14:16:15;;;;;;;8.10;5.62;;;;;;;20.03;64.25;99926.09;2104844;84;32949;-62
2021/08/30 14:19:23;;;;;;;6.70;5.55;;;;;;;20.01;64.38;99922.16;2104715;84;29310;-61
2021/08/30 14:22:29;;;;;;;7.00;5.50;;;;;;;20.00;64.33;99917.73;2084576;84;27967;-59
2021/08/30 14:25:38;;;;;;;5.45;4.85;;;;;;;20.03;64.18;99922.00;2104846;83;28607;-60
2021/08/30 14:29:01;;;;;;;5.20;4.53;;;;;;;20.08;64.22;99915.63;2104774;83;31050;-60